createdAt,value
2022-12-12T00:02:19.825Z,4.50
2022-12-12T00:04:46.702Z,4.38
2022-12-12T00:07:13.523Z,5.32
2022-12-12T00:09:40.472Z,4.13
2022-12-12T00:12:07.295Z,4.00
2022-12-12T00:14:34.203Z,3.78
2022-12-12T00:17:02.442Z,4.30
2022-12-12T00:19:29.281Z,4.13
2022-12-12T00:21:56.017Z,4.68
2022-12-12T00:24:22.719Z,4.22
2022-12-12T00:26:49.418Z,3.90
2022-12-12T00:29:16.113Z,3.70
2022-12-12T00:31:42.843Z,4.03
2022-12-12T00:34:09.549Z,4.32
2022-12-12T00:36:36.253Z,3.60
2022-12-12T00:39:04.298Z,4.57
2022-12-12T00:41:31.162Z,4.85
2022-12-12T00:43:57.937Z,4.18
2022-12-12T00:46:25.133Z,3.83
2022-12-12T00:48:54.272Z,4.43
2022-12-12T00:51:21.891Z,4.18
2022-12-12T00:53:48.974Z,3.65
2022-12-12T00:56:16.834Z,5.70
2022-12-12T00:58:43.666Z,3.83
2022-12-12T01:01:21.843Z,4.15
2022-12-12T01:03:48.640Z,4.38
2022-12-12T01:06:15.426Z,4.00
2022-12-12T01:08:42.136Z,4.15
2022-12-12T01:11:09.002Z,4.15
2022-12-12T01:13:36.486Z,4.30
2022-12-12T01:16:06.091Z,3.72
2022-12-12T01:18:33.156Z,5.75
2022-12-12T01:20:59.903Z,3.67
2022-12-12T01:23:27.446Z,4.18
2022-12-12T01:26:14.494Z,5.15
2022-12-12T01:28:42.582Z,4.13
2022-12-12T01:31:09.505Z,4.10
2022-12-12T01:33:37.384Z,4.40
2022-12-12T01:36:06.194Z,5.53
2022-12-12T01:38:32.954Z,4.32
2022-12-12T01:40:59.670Z,3.72
2022-12-12T01:43:26.453Z,3.92
2022-12-12T01:46:02.663Z,3.80
2022-12-12T01:48:34.328Z,3.90
2022-12-12T01:51:02.673Z,6.13
2022-12-12T01:53:29.652Z,5.60
2022-12-12T01:55:56.471Z,3.85
2022-12-12T01:58:23.207Z,3.80
2022-12-12T02:00:50.009Z,4.10
2022-12-12T02:03:16.811Z,3.60
2022-12-12T02:05:52.211Z,4.30
2022-12-12T02:08:20.041Z,4.10
2022-12-12T02:10:47.042Z,3.80
2022-12-12T02:13:21.458Z,4.20
2022-12-12T02:16:04.943Z,4.38
2022-12-12T02:18:35.451Z,4.60
2022-12-12T02:21:09.919Z,4.93
2022-12-12T02:23:58.316Z,8.27
2022-12-12T02:27:01.355Z,3.78
2022-12-12T02:29:37.102Z,3.78
2022-12-12T02:32:10.361Z,3.53
2022-12-12T02:34:55.888Z,7.43
2022-12-12T02:37:40.590Z,4.35
2022-12-12T02:40:20.581Z,4.72
2022-12-12T02:42:53.009Z,3.85
2022-12-12T02:45:38.333Z,3.80
2022-12-12T02:48:20.042Z,4.28
2022-12-12T02:50:47.651Z,4.22
2022-12-12T02:53:18.333Z,5.05
2022-12-12T02:55:45.044Z,4.30
2022-12-12T02:58:11.903Z,3.90
2022-12-12T03:01:11.601Z,4.47
2022-12-12T03:04:30.371Z,5.13
2022-12-12T03:07:24.194Z,3.83
2022-12-12T03:10:27.088Z,3.53
2022-12-12T03:12:54.306Z,4.45
2022-12-12T03:15:26.489Z,4.20
2022-12-12T03:18:22.498Z,3.90
2022-12-12T03:21:02.955Z,4.95
2022-12-12T03:23:36.744Z,3.90
2022-12-12T03:26:13.756Z,3.90
2022-12-12T03:28:52.825Z,4.43
2022-12-12T03:31:21.476Z,3.88
2022-12-12T03:34:02.320Z,8.48
2022-12-12T03:36:33.981Z,6.10
2022-12-12T03:39:06.107Z,4.28
2022-12-12T03:41:37.118Z,4.10
2022-12-12T03:44:25.509Z,4.25
2022-12-12T03:47:01.119Z,3.92
2022-12-12T03:49:39.513Z,5.20
2022-12-12T03:52:19.746Z,4.40
2022-12-12T03:55:11.124Z,4.05
2022-12-12T03:57:59.572Z,5.50
2022-12-12T04:00:26.288Z,4.13
2022-12-12T04:03:05.470Z,4.25
2022-12-12T04:05:35.170Z,3.60
2022-12-12T04:08:05.030Z,4.78
2022-12-12T04:11:11.067Z,3.78
2022-12-12T04:13:53.606Z,4.72
2022-12-12T04:16:24.193Z,3.80
2022-12-12T04:19:45.179Z,3.88
2022-12-12T04:22:32.702Z,3.95
2022-12-12T04:25:12.722Z,3.97
2022-12-12T04:27:44.315Z,3.30
2022-12-12T04:30:15.914Z,3.42
2022-12-12T04:32:54.825Z,3.70
2022-12-12T04:35:29.350Z,3.70
2022-12-12T04:38:06.645Z,3.80
2022-12-12T04:40:42.436Z,4.07
2022-12-12T04:43:10.489Z,3.92
2022-12-12T04:45:40.712Z,3.72
2022-12-12T04:48:09.504Z,3.58
2022-12-12T04:50:36.287Z,4.28
2022-12-12T04:53:04.708Z,4.25
2022-12-12T04:55:33.363Z,3.88
2022-12-12T04:58:00.192Z,3.65
2022-12-12T05:00:27.997Z,3.70
2022-12-12T05:03:26.862Z,3.70
2022-12-12T05:06:12.960Z,3.55
2022-12-12T05:08:58.033Z,5.63
2022-12-12T05:11:24.745Z,3.65
2022-12-12T05:13:51.494Z,4.13
2022-12-12T05:16:20.514Z,3.65
2022-12-12T05:18:48.626Z,3.75
2022-12-12T05:21:15.603Z,3.90
2022-12-12T05:23:42.364Z,3.72
2022-12-12T05:26:22.778Z,3.95
2022-12-12T05:28:49.931Z,3.88
2022-12-12T05:31:17.154Z,3.65
2022-12-12T05:33:44.083Z,4.55
2022-12-12T05:36:10.857Z,4.00
2022-12-12T05:38:37.577Z,4.00
2022-12-12T05:41:05.303Z,3.42
2022-12-12T05:43:32.301Z,3.90
2022-12-12T05:45:59.298Z,3.33
2022-12-12T05:48:26.157Z,3.75
2022-12-12T05:50:53.235Z,3.33
2022-12-12T05:53:21.039Z,3.83
2022-12-12T05:55:51.491Z,3.40
2022-12-12T05:58:20.826Z,3.80
2022-12-12T06:00:50.717Z,3.83
2022-12-12T06:03:17.755Z,3.70
2022-12-12T06:05:44.508Z,3.53
2022-12-12T06:08:11.325Z,4.00
2022-12-12T06:10:38.053Z,4.20
2022-12-12T06:13:04.762Z,3.47
2022-12-12T06:15:31.604Z,3.60
2022-12-12T06:17:58.646Z,3.55
2022-12-12T06:20:25.506Z,4.13
2022-12-12T06:22:53.977Z,4.10
2022-12-12T06:25:22.285Z,3.45
2022-12-12T06:27:49.097Z,4.00
2022-12-12T06:30:15.860Z,3.75
2022-12-12T06:32:42.745Z,4.13
2022-12-12T06:35:09.980Z,3.97
2022-12-12T06:37:37.019Z,3.70
2022-12-12T06:40:04.864Z,3.83
2022-12-12T06:42:31.630Z,3.80
2022-12-12T06:44:58.391Z,4.07
2022-12-12T06:47:25.124Z,3.33
2022-12-12T06:49:52.626Z,4.65
2022-12-12T06:52:19.759Z,3.65
2022-12-12T06:54:46.576Z,3.20
2022-12-12T06:57:13.289Z,4.05
2022-12-12T06:59:40.001Z,3.92
2022-12-12T07:02:07.162Z,3.55
2022-12-12T07:04:33.888Z,3.60
2022-12-12T07:07:00.589Z,3.40
2022-12-12T07:09:28.339Z,3.92
2022-12-12T07:11:55.289Z,3.38
2022-12-12T07:14:22.282Z,3.53
2022-12-12T07:16:49.975Z,3.53
2022-12-12T07:19:16.722Z,3.70
2022-12-12T07:21:43.414Z,3.40
2022-12-12T07:24:10.169Z,3.70
2022-12-12T07:26:36.868Z,4.10
2022-12-12T07:29:05.313Z,3.95
2022-12-12T07:31:32.302Z,3.35
2022-12-12T07:33:59.142Z,3.75
2022-12-12T07:36:26.460Z,3.60
2022-12-12T07:38:53.228Z,3.70
2022-12-12T07:41:20.875Z,3.55
2022-12-12T07:43:47.907Z,3.72
2022-12-12T07:46:17.160Z,3.90
2022-12-12T07:48:44.052Z,3.67
2022-12-12T07:51:10.762Z,5.00
2022-12-12T07:53:37.513Z,3.50
2022-12-12T07:56:09.173Z,4.07
2022-12-12T07:58:36.269Z,4.57
2022-12-12T08:01:14.150Z,3.97
2022-12-12T08:03:42.321Z,3.60
2022-12-12T08:06:09.106Z,3.72
2022-12-12T08:08:35.886Z,3.72
2022-12-12T08:11:09.891Z,4.32
2022-12-12T08:13:36.956Z,3.75
2022-12-12T08:16:04.528Z,4.50
2022-12-12T08:18:31.359Z,4.47
2022-12-12T08:20:58.952Z,3.53
2022-12-12T08:23:26.022Z,3.90
2022-12-12T08:25:53.088Z,3.72
2022-12-12T08:28:19.980Z,3.80
2022-12-12T08:30:50.968Z,3.40
2022-12-12T08:33:17.950Z,5.78
2022-12-12T08:35:44.666Z,4.13
2022-12-12T08:38:11.366Z,3.22
2022-12-12T08:40:38.125Z,5.05
2022-12-12T08:43:04.844Z,3.47
2022-12-12T08:45:31.694Z,4.00
2022-12-12T08:47:59.583Z,4.72
2022-12-12T08:50:26.835Z,4.53
2022-12-12T08:52:54.368Z,4.43
2022-12-12T08:55:21.231Z,4.30
2022-12-12T08:57:48.036Z,3.90
2022-12-12T09:00:15.404Z,4.03
2022-12-12T09:02:42.549Z,4.07
2022-12-12T09:05:09.784Z,4.20
2022-12-12T09:07:37.588Z,6.32
2022-12-12T09:10:04.852Z,6.93
2022-12-12T09:12:34.512Z,4.57
2022-12-12T09:15:03.997Z,4.40
2022-12-12T09:17:30.956Z,5.97
2022-12-12T09:19:59.290Z,5.05
2022-12-12T09:22:26.021Z,3.72
2022-12-12T09:24:52.809Z,5.15
2022-12-12T09:27:19.526Z,4.25
2022-12-12T09:29:46.244Z,4.97
2022-12-12T09:32:12.973Z,4.60
2022-12-12T09:34:39.727Z,4.82
2022-12-12T09:37:06.844Z,4.43
2022-12-12T09:39:33.589Z,6.55
2022-12-12T09:42:12.168Z,4.60
2022-12-12T09:44:38.973Z,3.90
2022-12-12T09:47:07.638Z,3.75
2022-12-12T09:49:45.763Z,4.53
2022-12-12T09:52:17.627Z,4.30
2022-12-12T09:54:44.384Z,5.00
2022-12-12T09:57:17.173Z,5.18
2022-12-12T09:59:51.806Z,6.55
2022-12-12T10:02:41.061Z,4.65
2022-12-12T10:05:46.088Z,4.25
2022-12-12T10:08:18.558Z,3.80
2022-12-12T10:10:46.562Z,3.50
2022-12-12T10:13:35.174Z,3.58
2022-12-12T10:16:12.786Z,4.28
2022-12-12T10:18:41.294Z,4.50
2022-12-12T10:21:14.594Z,4.00
2022-12-12T10:23:57.821Z,4.22
2022-12-12T10:26:29.286Z,4.57
2022-12-12T10:29:10.300Z,4.72
2022-12-12T10:31:59.965Z,3.75
2022-12-12T10:34:35.853Z,4.53
2022-12-12T10:37:21.664Z,5.82
2022-12-12T10:40:06.097Z,4.50
2022-12-12T10:42:41.567Z,5.00
2022-12-12T10:45:29.663Z,4.50
2022-12-12T10:47:56.905Z,4.07
2022-12-12T10:50:34.409Z,4.57
2022-12-12T10:53:03.001Z,5.35
2022-12-12T10:55:59.746Z,4.38
2022-12-12T10:58:27.799Z,3.65
2022-12-12T11:01:02.517Z,4.30
2022-12-12T11:03:32.971Z,5.28
2022-12-12T11:06:02.865Z,5.20
2022-12-12T11:08:34.076Z,6.50
2022-12-12T11:11:20.668Z,4.97
2022-12-12T11:13:51.993Z,5.75
2022-12-12T11:16:24.447Z,9.75
2022-12-12T11:19:22.002Z,4.75
2022-12-12T11:21:48.928Z,5.07
2022-12-12T11:24:22.974Z,5.72
2022-12-12T11:26:52.945Z,4.20
2022-12-12T11:29:44.345Z,6.20
2022-12-12T11:32:22.417Z,6.28
2022-12-12T11:34:57.597Z,5.72
2022-12-12T11:37:27.760Z,4.13
2022-12-12T11:39:54.597Z,4.80
2022-12-12T11:42:27.619Z,5.43
2022-12-12T11:45:04.685Z,4.80
2022-12-12T11:47:40.777Z,4.80
2022-12-12T11:50:18.097Z,4.28
2022-12-12T11:52:44.938Z,5.03
2022-12-12T11:55:20.856Z,4.03
2022-12-12T11:58:10.031Z,4.50
2022-12-12T12:00:55.269Z,4.03
2022-12-12T12:03:30.988Z,5.28
2022-12-12T12:06:15.997Z,4.32
2022-12-12T12:08:52.097Z,6.05
2022-12-12T12:11:33.679Z,8.75
2022-12-12T12:14:20.352Z,5.15
2022-12-12T12:16:56.495Z,5.47
2022-12-12T12:19:44.221Z,3.38
2022-12-12T12:22:32.547Z,5.63
2022-12-12T12:25:18.684Z,7.07
2022-12-12T12:28:24.095Z,5.95
2022-12-12T12:31:05.097Z,8.85
2022-12-12T12:33:52.512Z,5.05
2022-12-12T12:36:22.833Z,5.45
2022-12-12T12:38:57.985Z,5.32
2022-12-12T12:41:57.765Z,4.93
2022-12-12T12:44:41.498Z,4.53
2022-12-12T12:47:29.256Z,5.18
2022-12-12T12:50:18.295Z,7.13
2022-12-12T12:52:51.809Z,5.15
2022-12-12T12:55:20.057Z,5.28
2022-12-12T12:57:51.112Z,4.30
2022-12-12T13:00:23.589Z,5.28
2022-12-12T13:03:04.290Z,6.22
2022-12-12T13:05:51.368Z,9.25
2022-12-12T13:08:54.257Z,6.47
2022-12-12T13:11:36.847Z,8.05
2022-12-12T13:14:30.282Z,8.05
2022-12-12T13:16:57.671Z,9.15
2022-12-12T13:19:35.938Z,4.80
2022-12-12T13:22:23.356Z,4.28
2022-12-12T13:24:59.417Z,4.38
2022-12-12T13:27:33.172Z,7.70
2022-12-12T13:30:15.270Z,4.80
2022-12-12T13:33:12.927Z,5.43
2022-12-12T13:35:44.352Z,4.55
2022-12-12T13:38:26.034Z,5.57
2022-12-12T13:41:01.769Z,4.22
2022-12-12T13:43:37.640Z,4.75
2022-12-12T13:46:29.326Z,5.15
2022-12-12T13:49:17.821Z,4.78
2022-12-12T13:51:44.755Z,5.10
2022-12-12T13:54:14.393Z,4.05
2022-12-12T13:57:05.660Z,5.22
2022-12-12T13:59:32.482Z,9.55
2022-12-12T14:02:01.444Z,9.75
2022-12-12T14:04:39.761Z,5.05
2022-12-12T14:07:17.078Z,6.38
2022-12-12T14:09:51.823Z,6.18
2022-12-12T14:12:30.664Z,9.50
2022-12-12T14:15:03.702Z,5.97
2022-12-12T14:17:40.055Z,7.50
2022-12-12T14:20:23.665Z,6.03
2022-12-12T14:22:50.360Z,5.72
2022-12-12T14:25:20.697Z,5.72
2022-12-12T14:27:50.498Z,9.40
2022-12-12T14:30:24.173Z,8.57
2022-12-12T14:32:56.590Z,7.55
2022-12-12T14:35:39.590Z,10.00
2022-12-12T14:38:27.950Z,10.13
2022-12-12T14:41:01.719Z,7.82
2022-12-12T14:43:30.989Z,6.38
2022-12-12T14:45:59.559Z,6.05
2022-12-12T14:48:35.089Z,8.68
2022-12-12T14:51:29.253Z,7.57
2022-12-12T14:53:57.454Z,5.53
2022-12-12T14:56:36.793Z,7.50
2022-12-12T14:59:16.452Z,11.93
2022-12-12T15:01:47.613Z,6.72
2022-12-12T15:04:15.731Z,7.97
2022-12-12T15:06:49.624Z,10.07
2022-12-12T15:09:32.454Z,7.10
2022-12-12T15:12:11.002Z,9.73
2022-12-12T15:14:38.650Z,9.88
2022-12-12T15:17:13.846Z,8.65
2022-12-12T15:19:51.347Z,7.07
2022-12-12T15:22:24.104Z,14.70
2022-12-12T15:24:50.923Z,10.43
2022-12-12T15:27:32.174Z,8.25
2022-12-12T15:30:00.561Z,6.85
2022-12-12T15:32:27.473Z,14.45
2022-12-12T15:35:09.511Z,10.32
2022-12-12T15:37:37.247Z,9.18
2022-12-12T15:40:06.960Z,11.23
2022-12-12T15:42:33.710Z,7.32
2022-12-12T15:45:01.791Z,7.97
2022-12-12T15:47:28.570Z,7.07
2022-12-12T15:49:56.215Z,7.72
2022-12-12T15:52:27.624Z,8.50
2022-12-12T15:54:56.468Z,8.30
2022-12-12T15:57:29.723Z,6.45
2022-12-12T16:00:03.426Z,7.93
2022-12-12T16:02:32.715Z,8.68
2022-12-12T16:05:29.653Z,7.32
2022-12-12T16:08:33.309Z,7.03
2022-12-12T16:11:04.930Z,6.60
2022-12-12T16:13:41.301Z,7.00
2022-12-12T16:16:33.208Z,8.43
2022-12-12T16:19:01.778Z,8.95
2022-12-12T16:21:29.250Z,8.52
2022-12-12T16:24:18.750Z,10.20
2022-12-12T16:26:45.474Z,7.03
2022-12-12T16:29:12.220Z,7.70
2022-12-12T16:31:38.993Z,9.13
2022-12-12T16:34:05.791Z,7.20
2022-12-12T16:36:38.323Z,8.02
2022-12-12T16:39:09.465Z,6.68
2022-12-12T16:41:36.199Z,6.78
2022-12-12T16:44:02.956Z,8.70
2022-12-12T16:46:31.362Z,9.18
2022-12-12T16:49:04.315Z,7.15
2022-12-12T16:51:33.381Z,6.88
2022-12-12T16:54:01.580Z,7.88
2022-12-12T16:56:28.295Z,7.13
2022-12-12T16:58:56.206Z,5.57
2022-12-12T17:01:23.113Z,7.97
2022-12-12T17:03:49.949Z,7.63
2022-12-12T17:06:16.826Z,6.65
2022-12-12T17:08:43.554Z,7.03
2022-12-12T17:11:11.260Z,8.18
2022-12-12T17:13:39.901Z,6.93
2022-12-12T17:16:06.849Z,7.00
2022-12-12T17:18:33.671Z,6.43
2022-12-12T17:21:01.476Z,7.57
2022-12-12T17:23:28.199Z,7.20
2022-12-12T17:26:02.464Z,7.75
2022-12-12T17:28:31.591Z,8.60
2022-12-12T17:30:59.219Z,7.43
2022-12-12T17:33:26.687Z,6.18
2022-12-12T17:36:04.262Z,9.50
2022-12-12T17:38:31.864Z,10.18
2022-12-12T17:41:00.374Z,5.88
2022-12-12T17:43:27.194Z,7.90
2022-12-12T17:46:02.344Z,8.43
2022-12-12T17:48:31.393Z,8.40
2022-12-12T17:51:03.423Z,9.00
2022-12-12T17:53:38.349Z,7.07
2022-12-12T17:56:09.480Z,6.38
2022-12-12T17:58:36.770Z,7.70
2022-12-12T18:01:13.469Z,6.85
2022-12-12T18:03:40.631Z,6.75
2022-12-12T18:06:07.510Z,11.20
2022-12-12T18:08:34.532Z,9.02
2022-12-12T18:11:06.634Z,12.85
2022-12-12T18:13:34.906Z,10.02
2022-12-12T18:16:03.165Z,10.80
2022-12-12T18:18:32.918Z,10.57
2022-12-12T18:21:07.947Z,13.40
2022-12-12T18:23:34.930Z,11.18
2022-12-12T18:26:05.792Z,8.18
2022-12-12T18:28:32.608Z,11.38
2022-12-12T18:31:01.518Z,9.18
2022-12-12T18:33:29.280Z,17.13
2022-12-12T18:36:04.673Z,8.27
2022-12-12T18:38:32.768Z,10.43
2022-12-12T18:41:01.903Z,9.65
2022-12-12T18:43:29.722Z,10.23
2022-12-12T18:46:06.706Z,8.30
2022-12-12T18:48:35.133Z,10.48
2022-12-12T18:51:16.376Z,8.18
2022-12-12T18:53:43.273Z,12.63
2022-12-12T18:56:20.474Z,7.90
2022-12-12T18:58:47.241Z,8.45
2022-12-12T19:01:19.011Z,9.25
2022-12-12T19:03:46.175Z,8.30
2022-12-12T19:06:14.740Z,7.72
2022-12-12T19:08:41.593Z,7.05
2022-12-12T19:11:08.429Z,9.15
2022-12-12T19:13:35.179Z,9.40
2022-12-12T19:16:13.445Z,8.85
2022-12-12T19:18:40.557Z,9.40
2022-12-12T19:21:11.913Z,7.75
2022-12-12T19:23:39.096Z,12.38
2022-12-12T19:26:27.059Z,8.82
2022-12-12T19:28:57.927Z,10.85
2022-12-12T19:31:25.080Z,11.80
2022-12-12T19:33:52.142Z,10.25
2022-12-12T19:36:23.687Z,9.65
2022-12-12T19:38:50.681Z,11.82
2022-12-12T19:41:18.430Z,9.20
2022-12-12T19:43:46.042Z,10.18
2022-12-12T19:46:15.645Z,10.70
2022-12-12T19:48:42.646Z,10.00
2022-12-12T19:51:11.602Z,9.18
2022-12-12T19:53:45.989Z,11.18
2022-12-12T19:56:13.803Z,13.98
2022-12-12T19:58:41.294Z,10.95
2022-12-12T20:01:09.715Z,9.80
2022-12-12T20:03:36.458Z,11.88
2022-12-12T20:06:04.690Z,9.40
2022-12-12T20:08:32.962Z,10.90
2022-12-12T20:11:20.999Z,7.47
2022-12-12T20:13:54.398Z,9.55
2022-12-12T20:16:22.645Z,9.48
2022-12-12T20:18:52.528Z,9.35
2022-12-12T20:21:51.565Z,8.63
2022-12-12T20:24:08.340Z,9.73
2022-12-12T20:26:35.131Z,7.85
2022-12-12T20:29:03.184Z,9.95
2022-12-12T20:31:33.140Z,8.07
2022-12-12T20:34:00.978Z,11.70
2022-12-12T20:36:33.275Z,9.70
2022-12-12T20:39:02.927Z,8.25
2022-12-12T20:41:33.312Z,12.90
2022-12-12T20:44:00.626Z,13.68
2022-12-12T20:46:36.150Z,12.23
2022-12-12T20:49:04.571Z,8.82
2022-12-12T20:52:01.274Z,9.35
2022-12-12T20:54:22.109Z,10.20
2022-12-12T20:56:49.428Z,8.52
2022-12-12T20:59:16.181Z,9.35
2022-12-12T21:01:42.989Z,8.95
2022-12-12T21:04:09.841Z,9.48
2022-12-12T21:06:38.584Z,11.40
2022-12-12T21:09:09.543Z,14.48
2022-12-12T21:11:37.026Z,14.32
2022-12-12T21:14:04.611Z,10.23
2022-12-12T21:16:34.354Z,10.25
2022-12-12T21:19:03.535Z,7.82
2022-12-12T21:21:30.376Z,7.20
2022-12-12T21:23:57.268Z,9.27
2022-12-12T21:26:29.007Z,9.77
2022-12-12T21:28:56.612Z,12.55
2022-12-12T21:31:25.221Z,8.38
2022-12-12T21:33:51.983Z,11.23
2022-12-12T21:36:20.781Z,10.68
2022-12-12T21:38:47.838Z,10.95
2022-12-12T21:41:16.260Z,11.85
2022-12-12T21:43:44.458Z,8.43
2022-12-12T21:46:13.204Z,10.73
2022-12-12T21:48:40.013Z,7.10
2022-12-12T21:51:08.207Z,8.23
2022-12-12T21:53:36.257Z,9.32
2022-12-12T21:56:17.485Z,9.43
2022-12-12T21:58:45.852Z,8.18
2022-12-12T22:01:22.596Z,7.40
2022-12-12T22:03:49.444Z,7.30
2022-12-12T22:06:17.119Z,7.85
2022-12-12T22:08:44.046Z,9.00
2022-12-12T22:11:10.901Z,7.70
2022-12-12T22:13:40.021Z,6.70
2022-12-12T22:16:10.603Z,8.35
2022-12-12T22:18:37.752Z,7.13
2022-12-12T22:21:07.387Z,6.80
2022-12-12T22:23:35.689Z,7.82
2022-12-12T22:26:16.011Z,7.90
2022-12-12T22:28:43.191Z,8.80
2022-12-12T22:31:10.571Z,6.35
2022-12-12T22:33:38.898Z,7.80
2022-12-12T22:36:08.931Z,6.90
2022-12-12T22:38:38.501Z,7.22
2022-12-12T22:41:06.641Z,7.38
2022-12-12T22:43:37.058Z,6.47
2022-12-12T22:46:05.200Z,6.03
2022-12-12T22:48:32.144Z,7.22
2022-12-12T22:50:59.159Z,5.68
2022-12-12T22:53:26.346Z,5.78
2022-12-12T22:55:53.360Z,5.43
2022-12-12T22:58:20.353Z,5.93
2022-12-12T23:00:47.205Z,6.32
2022-12-12T23:03:13.927Z,6.25
2022-12-12T23:05:40.959Z,5.40
2022-12-12T23:08:08.936Z,6.05
2022-12-12T23:10:35.983Z,5.05
2022-12-12T23:13:02.906Z,5.82
2022-12-12T23:15:29.889Z,5.68
2022-12-12T23:17:56.767Z,4.97
2022-12-12T23:20:23.785Z,4.70
2022-12-12T23:22:50.721Z,5.30
2022-12-12T23:25:17.832Z,5.50
2022-12-12T23:27:44.807Z,6.28
2022-12-12T23:30:12.156Z,4.95
2022-12-12T23:32:40.042Z,4.50
2022-12-12T23:35:07.534Z,4.70
2022-12-12T23:37:34.552Z,5.65
2022-12-12T23:40:02.287Z,4.95
2022-12-12T23:42:29.693Z,4.70
2022-12-12T23:44:56.720Z,4.90
2022-12-12T23:47:23.876Z,5.50
2022-12-12T23:49:50.908Z,5.00
2022-12-12T23:52:17.896Z,4.85
2022-12-12T23:54:44.828Z,5.85
2022-12-12T23:57:12.848Z,4.53
2022-12-12T23:59:41.580Z,5.30
